Abelardo L. Rodriguez, México

9:21 AM CDT en Junio 22, 2017 (GMT -0500)
Francisco Sarabia | | Change Station

Alt 1732 ft 16.75 °N, 93.12 °W | Updated 28 minutes ago

Parcialmente nublado
Parcialmente nublado
72 ° F
Sensación térmica 72 ° F
N
2
Viento Variable Viento desde SE

Hoy
Alta -- | Baja -- ° F
--% Posibilidad de precipitaciones
Ayer
Alta -- | Baja -- ° F
Precip. -- pul
Presión 29.93 pul
Visibilidad 5.0 Millas
Nubes Nubes dispersas 800 ft
Nubes dispersas 1500 ft
Muy nublado 7000 ft
Punto de rocío 70 ° F
Humedad 94%
Precipitaciones 3.11 pul
Espesor de la nieve No disponible.
6:43 AM 7:51 PM
Creciente menguante, 4% visible
METAR MMTG 221353Z 13002KT 5SM SCT008 SCT015 BKN070 22/21 A2993 RMK 8/720 BCFG ST LWR ARND
Presión 29.93 pul
Visibilidad 5.0 Millas
Nubes Nubes dispersas 800 ft
Nubes dispersas 1500 ft
Muy nublado 7000 ft
Punto de rocío 70 ° F
Humedad 94%
Precipitaciones 3.11 pul
Espesor de la nieve No disponible.
6:43 AM 7:51 PM
Creciente menguante, 4% visible
METAR MMTG 221353Z 13002KT 5SM SCT008 SCT015 BKN070 22/21 A2993 RMK 8/720 BCFG ST LWR ARND

Get Severe Weather Alerts

Thanks for signing up!

Be on the lookout for a verification email in your inbox.

You'll start receiving the daily forecast at 6 AM.

×

10-Day Weather Forecast

No radar image for this location.
×

Almanac

Astronomía

Jun. 22, 2017 Salida Puesta
Hora real
Crepúsculo civil
Crepúsculo náutico
Crepúsculo astronómico
Luna
Horas de luz
Horas de luz
Tomorrow will be .
, % of the Moon is Illuminated

Extremos de hoy

Máximos del país Bajas del país

Community

WunderPhotos

Category 6

Welcome to Category 6. This is the collective home for Weather Underground's featured writeups by Dr. Jeff Masters (right), Bob Henson (left), Chris Burt, and other regular contributors.

Nearby

Calidad del aire

  Calidad del aire Índice AQ Contaminante
Not available.

Grosos de nieve

Estación Profundido Altura

Actividad de terremotos

Ciudad Distance Mag. Tiempo y dato
Magnitud mínima muestra es 2,5.

Temperaturas de aguas costeras

Lugar Temperatura

Stations

Estaciones meteorológicas cercanas

Ubicación de la estación Temp. Vientos helados Punto de rocío Humedad Viento Precip. Alt Actualizado Tipo